sensor_id;sensor_type;location;lat;lon;timestamp;P1;durP1;ratioP1;P2;durP2;ratioP2
76574;SDS011;65439;50.948;6.988;2023-04-24T00:02:17;1.97;;;1.13;;
76574;SDS011;65439;50.948;6.988;2023-04-24T00:04:43;2.05;;;1.30;;
76574;SDS011;65439;50.948;6.988;2023-04-24T00:07:10;1.92;;;1.15;;
76574;SDS011;65439;50.948;6.988;2023-04-24T00:09:44;1.80;;;1.40;;
76574;SDS011;65439;50.948;6.988;2023-04-24T00:12:10;2.78;;;1.48;;
76574;SDS011;65439;50.948;6.988;2023-04-24T00:14:35;2.53;;;1.98;;
76574;SDS011;65439;50.948;6.988;2023-04-24T00:17:01;4.15;;;2.08;;
76574;SDS011;65439;50.948;6.988;2023-04-24T00:19:27;2.72;;;1.67;;
76574;SDS011;65439;50.948;6.988;2023-04-24T00:21:53;2.42;;;1.40;;
76574;SDS011;65439;50.948;6.988;2023-04-24T00:24:18;3.00;;;1.85;;
76574;SDS011;65439;50.948;6.988;2023-04-24T00:26:44;2.83;;;1.48;;
76574;SDS011;65439;50.948;6.988;2023-04-24T00:29:09;2.22;;;1.48;;
76574;SDS011;65439;50.948;6.988;2023-04-24T00:31:34;4.67;;;1.43;;
76574;SDS011;65439;50.948;6.988;2023-04-24T00:34:00;3.63;;;1.90;;
76574;SDS011;65439;50.948;6.988;2023-04-24T00:36:27;5.63;;;2.65;;
76574;SDS011;65439;50.948;6.988;2023-04-24T00:38:52;1.80;;;1.30;;
76574;SDS011;65439;50.948;6.988;2023-04-24T00:41:18;3.08;;;1.60;;
76574;SDS011;65439;50.948;6.988;2023-04-24T00:43:43;4.47;;;1.63;;
76574;SDS011;65439;50.948;6.988;2023-04-24T00:46:09;2.72;;;1.60;;
76574;SDS011;65439;50.948;6.988;2023-04-24T00:48:35;1.88;;;1.48;;
76574;SDS011;65439;50.948;6.988;2023-04-24T00:51:02;2.47;;;1.50;;
76574;SDS011;65439;50.948;6.988;2023-04-24T00:53:27;2.42;;;1.48;;
76574;SDS011;65439;50.948;6.988;2023-04-24T00:55:53;3.40;;;1.80;;
76574;SDS011;65439;50.948;6.988;2023-04-24T00:58:18;3.17;;;1.75;;
76574;SDS011;65439;50.948;6.988;2023-04-24T01:00:44;2.58;;;1.55;;
76574;SDS011;65439;50.948;6.988;2023-04-24T01:03:10;2.72;;;1.50;;
76574;SDS011;65439;50.948;6.988;2023-04-24T01:05:35;2.60;;;1.50;;
76574;SDS011;65439;50.948;6.988;2023-04-24T01:08:01;4.60;;;2.03;;
76574;SDS011;65439;50.948;6.988;2023-04-24T01:10:26;4.70;;;2.40;;
76574;SDS011;65439;50.948;6.988;2023-04-24T01:12:52;2.40;;;1.75;;
76574;SDS011;65439;50.948;6.988;2023-04-24T01:15:18;4.45;;;1.73;;
76574;SDS011;65439;50.948;6.988;2023-04-24T01:17:43;4.40;;;1.73;;
76574;SDS011;65439;50.948;6.988;2023-04-24T01:20:08;2.27;;;1.80;;
76574;SDS011;65439;50.948;6.988;2023-04-24T01:22:34;4.65;;;2.00;;
76574;SDS011;65439;50.948;6.988;2023-04-24T01:24:59;2.45;;;1.73;;
76574;SDS011;65439;50.948;6.988;2023-04-24T01:27:25;3.72;;;1.80;;
76574;SDS011;65439;50.948;6.988;2023-04-24T01:29:50;4.07;;;2.27;;
76574;SDS011;65439;50.948;6.988;2023-04-24T01:32:17;4.47;;;2.00;;
76574;SDS011;65439;50.948;6.988;2023-04-24T01:34:43;2.78;;;2.08;;
76574;SDS011;65439;50.948;6.988;2023-04-24T01:37:09;3.90;;;2.30;;
76574;SDS011;65439;50.948;6.988;2023-04-24T01:39:34;4.67;;;2.30;;
76574;SDS011;65439;50.948;6.988;2023-04-24T01:41:59;3.17;;;2.42;;
76574;SDS011;65439;50.948;6.988;2023-04-24T01:44:26;4.75;;;3.00;;
76574;SDS011;65439;50.948;6.988;2023-04-24T01:46:52;4.57;;;3.65;;
76574;SDS011;65439;50.948;6.988;2023-04-24T01:49:19;3.75;;;2.88;;
76574;SDS011;65439;50.948;6.988;2023-04-24T01:51:44;4.28;;;2.75;;
76574;SDS011;65439;50.948;6.988;2023-04-24T01:54:10;3.67;;;2.63;;
76574;SDS011;65439;50.948;6.988;2023-04-24T01:56:35;3.47;;;2.60;;
76574;SDS011;65439;50.948;6.988;2023-04-24T01:59:02;4.07;;;2.67;;
76574;SDS011;65439;50.948;6.988;2023-04-24T02:01:33;4.72;;;3.58;;
76574;SDS011;65439;50.948;6.988;2023-04-24T02:04:00;4.45;;;3.20;;
76574;SDS011;65439;50.948;6.988;2023-04-24T02:06:25;4.65;;;3.55;;
76574;SDS011;65439;50.948;6.988;2023-04-24T02:08:50;7.83;;;3.93;;
76574;SDS011;65439;50.948;6.988;2023-04-24T02:11:16;5.57;;;4.20;;
76574;SDS011;65439;50.948;6.988;2023-04-24T02:13:41;8.03;;;4.67;;
76574;SDS011;65439;50.948;6.988;2023-04-24T02:16:06;7.43;;;4.67;;
76574;SDS011;65439;50.948;6.988;2023-04-24T02:18:32;6.93;;;3.60;;
76574;SDS011;65439;50.948;6.988;2023-04-24T02:20:57;6.87;;;3.30;;
76574;SDS011;65439;50.948;6.988;2023-04-24T02:23:22;6.83;;;3.67;;
76574;SDS011;65439;50.948;6.988;2023-04-24T02:25:47;6.45;;;4.63;;
76574;SDS011;65439;50.948;6.988;2023-04-24T02:28:13;5.75;;;4.38;;
76574;SDS011;65439;50.948;6.988;2023-04-24T02:30:38;8.00;;;4.60;;
76574;SDS011;65439;50.948;6.988;2023-04-24T02:33:04;6.87;;;4.60;;
76574;SDS011;65439;50.948;6.988;2023-04-24T02:35:29;7.73;;;4.53;;
76574;SDS011;65439;50.948;6.988;2023-04-24T02:37:54;7.18;;;4.40;;
76574;SDS011;65439;50.948;6.988;2023-04-24T02:40:20;6.47;;;4.43;;
76574;SDS011;65439;50.948;6.988;2023-04-24T02:42:45;5.33;;;4.27;;
76574;SDS011;65439;50.948;6.988;2023-04-24T02:45:10;6.97;;;4.53;;
76574;SDS011;65439;50.948;6.988;2023-04-24T02:47:36;10.70;;;5.10;;
76574;SDS011;65439;50.948;6.988;2023-04-24T02:50:02;5.23;;;4.03;;
76574;SDS011;65439;50.948;6.988;2023-04-24T02:52:28;7.07;;;4.13;;
76574;SDS011;65439;50.948;6.988;2023-04-24T02:54:53;10.82;;;4.65;;
76574;SDS011;65439;50.948;6.988;2023-04-24T02:57:19;8.00;;;4.18;;
76574;SDS011;65439;50.948;6.988;2023-04-24T02:59:44;7.47;;;5.13;;
76574;SDS011;65439;50.948;6.988;2023-04-24T03:02:09;9.38;;;5.88;;
76574;SDS011;65439;50.948;6.988;2023-04-24T03:04:35;7.13;;;4.87;;
76574;SDS011;65439;50.948;6.988;2023-04-24T03:07:00;13.07;;;5.27;;
76574;SDS011;65439;50.948;6.988;2023-04-24T03:09:26;7.70;;;4.57;;
76574;SDS011;65439;50.948;6.988;2023-04-24T03:11:51;7.77;;;4.83;;
76574;SDS011;65439;50.948;6.988;2023-04-24T03:14:16;7.97;;;6.30;;
76574;SDS011;65439;50.948;6.988;2023-04-24T03:16:42;9.00;;;5.88;;
76574;SDS011;65439;50.948;6.988;2023-04-24T03:19:07;8.07;;;6.03;;
76574;SDS011;65439;50.948;6.988;2023-04-24T03:21:32;9.27;;;6.00;;
76574;SDS011;65439;50.948;6.988;2023-04-24T03:23:58;6.75;;;5.68;;
76574;SDS011;65439;50.948;6.988;2023-04-24T03:26:23;7.00;;;4.90;;
76574;SDS011;65439;50.948;6.988;2023-04-24T03:28:48;6.50;;;5.00;;
76574;SDS011;65439;50.948;6.988;2023-04-24T03:31:14;6.77;;;4.33;;
76574;SDS011;65439;50.948;6.988;2023-04-24T03:33:40;8.77;;;5.32;;
76574;SDS011;65439;50.948;6.988;2023-04-24T03:36:05;5.97;;;5.00;;
76574;SDS011;65439;50.948;6.988;2023-04-24T03:38:31;8.55;;;6.40;;
76574;SDS011;65439;50.948;6.988;2023-04-24T03:40:56;9.63;;;5.27;;
76574;SDS011;65439;50.948;6.988;2023-04-24T03:43:21;8.20;;;6.23;;
76574;SDS011;65439;50.948;6.988;2023-04-24T03:45:47;8.07;;;5.40;;
76574;SDS011;65439;50.948;6.988;2023-04-24T03:48:12;8.33;;;6.07;;
76574;SDS011;65439;50.948;6.988;2023-04-24T03:50:37;7.10;;;4.93;;
76574;SDS011;65439;50.948;6.988;2023-04-24T03:53:03;9.13;;;5.33;;
76574;SDS011;65439;50.948;6.988;2023-04-24T03:55:28;10.13;;;7.03;;
76574;SDS011;65439;50.948;6.988;2023-04-24T03:57:53;8.05;;;5.88;;
76574;SDS011;65439;50.948;6.988;2023-04-24T04:00:19;8.50;;;5.78;;
76574;SDS011;65439;50.948;6.988;2023-04-24T04:02:45;10.93;;;6.50;;
76574;SDS011;65439;50.948;6.988;2023-04-24T04:05:11;8.63;;;6.22;;
76574;SDS011;65439;50.948;6.988;2023-04-24T04:07:36;9.77;;;6.63;;
76574;SDS011;65439;50.948;6.988;2023-04-24T04:10:01;6.60;;;5.67;;
76574;SDS011;65439;50.948;6.988;2023-04-24T04:12:27;12.07;;;6.32;;
76574;SDS011;65439;50.948;6.988;2023-04-24T04:14:52;9.83;;;5.23;;
76574;SDS011;65439;50.948;6.988;2023-04-24T04:17:18;9.97;;;6.07;;
76574;SDS011;65439;50.948;6.988;2023-04-24T04:19:43;8.10;;;5.30;;
76574;SDS011;65439;50.948;6.988;2023-04-24T04:22:08;7.63;;;5.47;;
76574;SDS011;65439;50.948;6.988;2023-04-24T04:24:34;7.97;;;5.57;;
76574;SDS011;65439;50.948;6.988;2023-04-24T04:27:02;9.15;;;6.18;;
76574;SDS011;65439;50.948;6.988;2023-04-24T04:31:56;8.63;;;5.18;;
76574;SDS011;65439;50.948;6.988;2023-04-24T04:34:21;8.73;;;5.50;;
76574;SDS011;65439;50.948;6.988;2023-04-24T04:36:47;6.72;;;5.15;;
76574;SDS011;65439;50.948;6.988;2023-04-24T04:39:13;6.93;;;5.73;;
76574;SDS011;65439;50.948;6.988;2023-04-24T04:41:40;9.20;;;5.70;;
76574;SDS011;65439;50.948;6.988;2023-04-24T04:44:05;7.47;;;6.32;;
76574;SDS011;65439;50.948;6.988;2023-04-24T04:46:31;6.88;;;4.57;;
76574;SDS011;65439;50.948;6.988;2023-04-24T04:48:58;7.90;;;5.45;;
76574;SDS011;65439;50.948;6.988;2023-04-24T04:51:25;9.70;;;5.80;;
76574;SDS011;65439;50.948;6.988;2023-04-24T04:53:50;8.60;;;4.70;;
76574;SDS011;65439;50.948;6.988;2023-04-24T04:56:15;8.25;;;5.75;;
76574;SDS011;65439;50.948;6.988;2023-04-24T04:58:40;7.03;;;4.57;;
76574;SDS011;65439;50.948;6.988;2023-04-24T05:01:06;8.80;;;4.93;;
76574;SDS011;65439;50.948;6.988;2023-04-24T05:03:32;9.30;;;5.03;;
76574;SDS011;65439;50.948;6.988;2023-04-24T05:05:57;7.07;;;5.03;;
76574;SDS011;65439;50.948;6.988;2023-04-24T05:08:22;7.47;;;5.32;;
76574;SDS011;65439;50.948;6.988;2023-04-24T05:10:48;7.78;;;5.57;;
76574;SDS011;65439;50.948;6.988;2023-04-24T05:13:13;11.67;;;4.70;;
76574;SDS011;65439;50.948;6.988;2023-04-24T05:15:38;7.23;;;5.50;;
76574;SDS011;65439;50.948;6.988;2023-04-24T05:18:04;7.27;;;4.63;;
76574;SDS011;65439;50.948;6.988;2023-04-24T05:20:29;7.17;;;5.00;;
76574;SDS011;65439;50.948;6.988;2023-04-24T05:22:54;10.77;;;5.15;;
76574;SDS011;65439;50.948;6.988;2023-04-24T05:25:20;8.52;;;4.88;;
76574;SDS011;65439;50.948;6.988;2023-04-24T05:27:46;7.22;;;4.85;;
76574;SDS011;65439;50.948;6.988;2023-04-24T05:30:11;9.13;;;5.13;;
76574;SDS011;65439;50.948;6.988;2023-04-24T05:32:37;8.07;;;5.60;;
76574;SDS011;65439;50.948;6.988;2023-04-24T05:35:02;8.83;;;5.67;;
76574;SDS011;65439;50.948;6.988;2023-04-24T05:37:27;9.45;;;5.30;;
76574;SDS011;65439;50.948;6.988;2023-04-24T05:39:53;6.20;;;4.73;;
76574;SDS011;65439;50.948;6.988;2023-04-24T05:42:18;8.83;;;5.67;;
76574;SDS011;65439;50.948;6.988;2023-04-24T05:44:43;8.90;;;5.53;;
76574;SDS011;65439;50.948;6.988;2023-04-24T05:47:09;7.80;;;5.43;;
76574;SDS011;65439;50.948;6.988;2023-04-24T05:49:34;10.13;;;5.83;;
76574;SDS011;65439;50.948;6.988;2023-04-24T05:51:59;9.23;;;6.27;;
76574;SDS011;65439;50.948;6.988;2023-04-24T05:54:25;6.90;;;5.20;;
76574;SDS011;65439;50.948;6.988;2023-04-24T05:56:50;6.93;;;5.83;;
76574;SDS011;65439;50.948;6.988;2023-04-24T05:59:15;7.65;;;6.00;;
76574;SDS011;65439;50.948;6.988;2023-04-24T06:01:41;9.50;;;6.32;;
76574;SDS011;65439;50.948;6.988;2023-04-24T06:04:06;8.48;;;6.40;;
76574;SDS011;65439;50.948;6.988;2023-04-24T06:06:32;8.45;;;5.82;;
76574;SDS011;65439;50.948;6.988;2023-04-24T06:08:57;9.48;;;6.15;;
76574;SDS011;65439;50.948;6.988;2023-04-24T06:11:23;7.07;;;5.40;;
76574;SDS011;65439;50.948;6.988;2023-04-24T06:13:49;8.40;;;6.28;;
76574;SDS011;65439;50.948;6.988;2023-04-24T06:16:15;9.93;;;5.68;;
76574;SDS011;65439;50.948;6.988;2023-04-24T06:18:40;8.05;;;5.85;;
76574;SDS011;65439;50.948;6.988;2023-04-24T06:21:06;10.03;;;5.70;;
76574;SDS011;65439;50.948;6.988;2023-04-24T06:23:31;8.70;;;6.10;;
76574;SDS011;65439;50.948;6.988;2023-04-24T06:25:57;9.65;;;6.07;;
76574;SDS011;65439;50.948;6.988;2023-04-24T06:28:23;8.55;;;6.35;;
76574;SDS011;65439;50.948;6.988;2023-04-24T06:30:48;8.57;;;5.40;;
76574;SDS011;65439;50.948;6.988;2023-04-24T06:33:14;9.50;;;4.83;;
76574;SDS011;65439;50.948;6.988;2023-04-24T06:35:39;14.75;;;5.40;;
76574;SDS011;65439;50.948;6.988;2023-04-24T06:38:05;5.97;;;4.57;;
76574;SDS011;65439;50.948;6.988;2023-04-24T06:40:30;4.20;;;3.03;;
76574;SDS011;65439;50.948;6.988;2023-04-24T06:42:55;3.57;;;2.80;;
76574;SDS011;65439;50.948;6.988;2023-04-24T06:45:22;4.07;;;2.50;;
76574;SDS011;65439;50.948;6.988;2023-04-24T06:47:48;3.47;;;2.63;;
76574;SDS011;65439;50.948;6.988;2023-04-24T06:50:13;4.90;;;3.60;;
76574;SDS011;65439;50.948;6.988;2023-04-24T06:52:38;4.20;;;2.90;;
76574;SDS011;65439;50.948;6.988;2023-04-24T06:55:04;5.23;;;3.63;;
76574;SDS011;65439;50.948;6.988;2023-04-24T06:57:30;5.57;;;3.35;;
76574;SDS011;65439;50.948;6.988;2023-04-24T06:59:55;6.50;;;3.13;;
76574;SDS011;65439;50.948;6.988;2023-04-24T07:02:20;3.90;;;2.83;;
76574;SDS011;65439;50.948;6.988;2023-04-24T07:04:46;4.93;;;3.05;;
76574;SDS011;65439;50.948;6.988;2023-04-24T07:07:12;5.88;;;3.20;;
76574;SDS011;65439;50.948;6.988;2023-04-24T07:09:39;3.55;;;2.85;;
76574;SDS011;65439;50.948;6.988;2023-04-24T07:12:07;6.13;;;3.03;;
76574;SDS011;65439;50.948;6.988;2023-04-24T07:14:33;5.38;;;2.70;;
76574;SDS011;65439;50.948;6.988;2023-04-24T07:16:58;4.30;;;3.10;;
76574;SDS011;65439;50.948;6.988;2023-04-24T07:19:23;4.97;;;3.20;;
76574;SDS011;65439;50.948;6.988;2023-04-24T07:21:48;5.07;;;3.45;;
76574;SDS011;65439;50.948;6.988;2023-04-24T07:24:14;4.53;;;2.38;;
76574;SDS011;65439;50.948;6.988;2023-04-24T07:26:40;3.90;;;2.53;;
76574;SDS011;65439;50.948;6.988;2023-04-24T07:29:05;4.85;;;2.50;;
76574;SDS011;65439;50.948;6.988;2023-04-24T07:31:31;2.92;;;2.35;;
76574;SDS011;65439;50.948;6.988;2023-04-24T07:33:56;6.32;;;3.10;;
76574;SDS011;65439;50.948;6.988;2023-04-24T07:36:23;4.38;;;2.53;;
76574;SDS011;65439;50.948;6.988;2023-04-24T07:38:49;5.25;;;3.00;;
76574;SDS011;65439;50.948;6.988;2023-04-24T07:41:14;3.75;;;3.15;;
76574;SDS011;65439;50.948;6.988;2023-04-24T07:43:40;5.45;;;3.65;;
76574;SDS011;65439;50.948;6.988;2023-04-24T07:46:06;5.53;;;2.90;;
76574;SDS011;65439;50.948;6.988;2023-04-24T07:48:31;3.22;;;2.42;;
76574;SDS011;65439;50.948;6.988;2023-04-24T07:50:57;2.33;;;1.80;;
76574;SDS011;65439;50.948;6.988;2023-04-24T07:53:22;6.07;;;2.40;;
76574;SDS011;65439;50.948;6.988;2023-04-24T07:55:47;2.40;;;1.83;;
76574;SDS011;65439;50.948;6.988;2023-04-24T07:58:13;3.60;;;1.63;;
76574;SDS011;65439;50.948;6.988;2023-04-24T08:00:38;2.23;;;1.60;;
76574;SDS011;65439;50.948;6.988;2023-04-24T08:03:03;2.03;;;1.63;;
76574;SDS011;65439;50.948;6.988;2023-04-24T08:05:29;3.97;;;1.60;;
76574;SDS011;65439;50.948;6.988;2023-04-24T08:07:54;3.25;;;1.95;;
76574;SDS011;65439;50.948;6.988;2023-04-24T08:10:23;1.90;;;1.38;;
76574;SDS011;65439;50.948;6.988;2023-04-24T08:12:49;3.35;;;1.80;;
76574;SDS011;65439;50.948;6.988;2023-04-24T08:15:14;3.20;;;2.00;;
76574;SDS011;65439;50.948;6.988;2023-04-24T08:17:40;4.50;;;2.03;;
76574;SDS011;65439;50.948;6.988;2023-04-24T08:20:05;3.40;;;1.90;;
76574;SDS011;65439;50.948;6.988;2023-04-24T08:22:35;3.20;;;2.58;;
76574;SDS011;65439;50.948;6.988;2023-04-24T08:25:00;1.88;;;1.45;;
76574;SDS011;65439;50.948;6.988;2023-04-24T08:27:26;2.00;;;1.40;;
76574;SDS011;65439;50.948;6.988;2023-04-24T08:29:52;2.75;;;1.55;;
76574;SDS011;65439;50.948;6.988;2023-04-24T08:32:18;4.40;;;2.50;;
76574;SDS011;65439;50.948;6.988;2023-04-24T08:34:43;3.17;;;1.50;;
76574;SDS011;65439;50.948;6.988;2023-04-24T08:37:09;2.13;;;1.73;;
76574;SDS011;65439;50.948;6.988;2023-04-24T08:39:34;3.03;;;2.05;;
76574;SDS011;65439;50.948;6.988;2023-04-24T08:41:59;3.70;;;1.98;;
76574;SDS011;65439;50.948;6.988;2023-04-24T08:44:31;2.63;;;1.77;;
76574;SDS011;65439;50.948;6.988;2023-04-24T08:46:57;3.67;;;1.65;;
76574;SDS011;65439;50.948;6.988;2023-04-24T08:49:23;3.83;;;1.67;;
76574;SDS011;65439;50.948;6.988;2023-04-24T08:51:49;5.45;;;1.90;;
76574;SDS011;65439;50.948;6.988;2023-04-24T08:54:15;6.35;;;2.35;;
76574;SDS011;65439;50.948;6.988;2023-04-24T08:56:42;4.53;;;2.45;;
76574;SDS011;65439;50.948;6.988;2023-04-24T08:59:09;2.42;;;2.00;;
76574;SDS011;65439;50.948;6.988;2023-04-24T09:01:34;4.72;;;2.70;;
76574;SDS011;65439;50.948;6.988;2023-04-24T09:04:03;2.83;;;2.03;;
76574;SDS011;65439;50.948;6.988;2023-04-24T09:06:28;4.55;;;2.55;;
76574;SDS011;65439;50.948;6.988;2023-04-24T09:08:55;2.80;;;2.00;;
76574;SDS011;65439;50.948;6.988;2023-04-24T09:11:22;3.97;;;2.80;;
76574;SDS011;65439;50.948;6.988;2023-04-24T09:13:49;4.75;;;3.33;;
76574;SDS011;65439;50.948;6.988;2023-04-24T09:16:16;5.10;;;3.35;;
76574;SDS011;65439;50.948;6.988;2023-04-24T09:18:41;5.30;;;3.80;;
76574;SDS011;65439;50.948;6.988;2023-04-24T09:21:07;4.47;;;3.57;;
76574;SDS011;65439;50.948;6.988;2023-04-24T09:23:33;7.97;;;3.78;;
76574;SDS011;65439;50.948;6.988;2023-04-24T09:25:59;6.33;;;3.87;;
76574;SDS011;65439;50.948;6.988;2023-04-24T09:31:02;6.53;;;5.15;;
76574;SDS011;65439;50.948;6.988;2023-04-24T09:33:54;8.95;;;4.80;;
76574;SDS011;65439;50.948;6.988;2023-04-24T09:36:42;6.63;;;4.00;;
76574;SDS011;65439;50.948;6.988;2023-04-24T09:41:45;6.57;;;4.72;;
76574;SDS011;65439;50.948;6.988;2023-04-24T09:44:15;14.18;;;5.63;;
76574;SDS011;65439;50.948;6.988;2023-04-24T09:46:42;9.45;;;5.57;;
76574;SDS011;65439;50.948;6.988;2023-04-24T09:49:13;7.97;;;5.05;;
76574;SDS011;65439;50.948;6.988;2023-04-24T09:51:39;11.82;;;5.32;;
76574;SDS011;65439;50.948;6.988;2023-04-24T09:54:11;9.13;;;5.78;;
76574;SDS011;65439;50.948;6.988;2023-04-24T09:56:41;7.13;;;5.57;;
76574;SDS011;65439;50.948;6.988;2023-04-24T09:59:07;11.57;;;6.03;;
76574;SDS011;65439;50.948;6.988;2023-04-24T10:01:33;12.85;;;6.68;;
76574;SDS011;65439;50.948;6.988;2023-04-24T10:03:58;8.55;;;6.32;;
76574;SDS011;65439;50.948;6.988;2023-04-24T10:06:33;8.07;;;5.93;;
76574;SDS011;65439;50.948;6.988;2023-04-24T10:08:59;8.30;;;6.22;;
76574;SDS011;65439;50.948;6.988;2023-04-24T10:11:28;8.80;;;5.60;;
76574;SDS011;65439;50.948;6.988;2023-04-24T10:13:53;10.27;;;6.28;;
76574;SDS011;65439;50.948;6.988;2023-04-24T10:16:19;9.20;;;5.68;;
76574;SDS011;65439;50.948;6.988;2023-04-24T10:18:46;9.38;;;5.30;;
76574;SDS011;65439;50.948;6.988;2023-04-24T10:21:13;8.68;;;5.57;;
76574;SDS011;65439;50.948;6.988;2023-04-24T10:23:39;9.82;;;5.07;;
76574;SDS011;65439;50.948;6.988;2023-04-24T10:26:07;8.48;;;5.00;;
76574;SDS011;65439;50.948;6.988;2023-04-24T10:28:34;7.03;;;5.60;;
76574;SDS011;65439;50.948;6.988;2023-04-24T10:31:01;8.98;;;5.07;;
76574;SDS011;65439;50.948;6.988;2023-04-24T10:33:26;7.57;;;4.47;;
76574;SDS011;65439;50.948;6.988;2023-04-24T10:35:52;11.50;;;4.70;;
76574;SDS011;65439;50.948;6.988;2023-04-24T10:38:18;6.72;;;4.07;;
76574;SDS011;65439;50.948;6.988;2023-04-24T10:40:49;4.57;;;3.58;;
76574;SDS011;65439;50.948;6.988;2023-04-24T10:43:16;8.30;;;3.97;;
76574;SDS011;65439;50.948;6.988;2023-04-24T10:45:42;6.47;;;3.90;;
76574;SDS011;65439;50.948;6.988;2023-04-24T10:48:26;9.48;;;4.97;;
76574;SDS011;65439;50.948;6.988;2023-04-24T10:50:52;7.47;;;4.68;;
76574;SDS011;65439;50.948;6.988;2023-04-24T10:53:20;7.45;;;3.40;;
76574;SDS011;65439;50.948;6.988;2023-04-24T10:55:49;9.95;;;4.93;;
76574;SDS011;65439;50.948;6.988;2023-04-24T10:58:41;9.27;;;4.20;;
76574;SDS011;65439;50.948;6.988;2023-04-24T11:01:22;6.80;;;3.90;;
76574;SDS011;65439;50.948;6.988;2023-04-24T11:03:59;11.02;;;5.28;;
76574;SDS011;65439;50.948;6.988;2023-04-24T11:09:06;5.80;;;4.25;;
76574;SDS011;65439;50.948;6.988;2023-04-24T11:11:38;12.65;;;4.97;;
76574;SDS011;65439;50.948;6.988;2023-04-24T11:14:06;11.23;;;5.20;;
76574;SDS011;65439;50.948;6.988;2023-04-24T11:19:09;9.35;;;4.50;;
76574;SDS011;65439;50.948;6.988;2023-04-24T11:24:27;9.43;;;5.70;;
76574;SDS011;65439;50.948;6.988;2023-04-24T11:26:57;9.10;;;5.13;;
76574;SDS011;65439;50.948;6.988;2023-04-24T11:29:22;11.45;;;5.15;;
76574;SDS011;65439;50.948;6.988;2023-04-24T11:31:48;7.53;;;6.22;;
76574;SDS011;65439;50.948;6.988;2023-04-24T11:34:16;6.80;;;4.78;;
76574;SDS011;65439;50.948;6.988;2023-04-24T11:36:42;10.85;;;5.97;;
76574;SDS011;65439;50.948;6.988;2023-04-24T11:41:35;11.50;;;4.57;;
76574;SDS011;65439;50.948;6.988;2023-04-24T11:44:00;8.68;;;5.05;;
76574;SDS011;65439;50.948;6.988;2023-04-24T11:46:29;13.53;;;6.93;;
76574;SDS011;65439;50.948;6.988;2023-04-24T11:48:56;8.75;;;5.35;;
76574;SDS011;65439;50.948;6.988;2023-04-24T11:51:22;9.75;;;5.68;;
76574;SDS011;65439;50.948;6.988;2023-04-24T11:53:50;9.38;;;5.95;;
76574;SDS011;65439;50.948;6.988;2023-04-24T11:56:18;11.93;;;5.23;;
76574;SDS011;65439;50.948;6.988;2023-04-24T11:58:44;10.60;;;6.45;;
76574;SDS011;65439;50.948;6.988;2023-04-24T12:01:10;9.43;;;5.22;;
76574;SDS011;65439;50.948;6.988;2023-04-24T12:03:36;10.32;;;6.10;;
76574;SDS011;65439;50.948;6.988;2023-04-24T12:06:07;10.77;;;6.23;;
76574;SDS011;65439;50.948;6.988;2023-04-24T12:08:34;18.48;;;7.40;;
76574;SDS011;65439;50.948;6.988;2023-04-24T12:11:00;9.98;;;6.22;;
76574;SDS011;65439;50.948;6.988;2023-04-24T12:13:26;8.45;;;5.53;;
76574;SDS011;65439;50.948;6.988;2023-04-24T12:15:51;10.75;;;6.22;;
76574;SDS011;65439;50.948;6.988;2023-04-24T12:18:17;8.07;;;5.43;;
76574;SDS011;65439;50.948;6.988;2023-04-24T12:20:42;14.65;;;7.32;;
76574;SDS011;65439;50.948;6.988;2023-04-24T12:23:07;11.43;;;5.30;;
76574;SDS011;65439;50.948;6.988;2023-04-24T12:25:33;8.95;;;4.65;;
76574;SDS011;65439;50.948;6.988;2023-04-24T12:30:34;8.02;;;5.47;;
76574;SDS011;65439;50.948;6.988;2023-04-24T12:33:03;8.52;;;5.75;;
76574;SDS011;65439;50.948;6.988;2023-04-24T12:35:29;16.20;;;6.18;;
76574;SDS011;65439;50.948;6.988;2023-04-24T12:38:04;12.15;;;5.53;;
76574;SDS011;65439;50.948;6.988;2023-04-24T12:40:40;8.70;;;4.78;;
76574;SDS011;65439;50.948;6.988;2023-04-24T12:43:19;9.63;;;4.93;;
76574;SDS011;65439;50.948;6.988;2023-04-24T12:45:45;9.40;;;5.10;;
76574;SDS011;65439;50.948;6.988;2023-04-24T12:48:13;7.75;;;4.53;;
76574;SDS011;65439;50.948;6.988;2023-04-24T12:50:41;11.20;;;5.60;;
76574;SDS011;65439;50.948;6.988;2023-04-24T12:53:08;7.10;;;5.03;;
76574;SDS011;65439;50.948;6.988;2023-04-24T12:55:34;8.88;;;4.97;;
76574;SDS011;65439;50.948;6.988;2023-04-24T12:57:59;10.98;;;4.88;;
76574;SDS011;65439;50.948;6.988;2023-04-24T13:00:24;7.77;;;4.57;;
76574;SDS011;65439;50.948;6.988;2023-04-24T13:02:50;13.65;;;4.70;;
76574;SDS011;65439;50.948;6.988;2023-04-24T13:05:15;8.97;;;5.47;;
76574;SDS011;65439;50.948;6.988;2023-04-24T13:07:41;7.95;;;4.95;;
76574;SDS011;65439;50.948;6.988;2023-04-24T13:10:06;14.52;;;5.13;;
76574;SDS011;65439;50.948;6.988;2023-04-24T13:12:32;9.02;;;4.60;;
76574;SDS011;65439;50.948;6.988;2023-04-24T13:14:58;6.57;;;4.47;;
76574;SDS011;65439;50.948;6.988;2023-04-24T13:17:23;12.15;;;4.45;;
76574;SDS011;65439;50.948;6.988;2023-04-24T13:19:49;7.15;;;4.82;;
76574;SDS011;65439;50.948;6.988;2023-04-24T13:22:16;9.38;;;4.43;;
76574;SDS011;65439;50.948;6.988;2023-04-24T13:24:42;10.10;;;5.40;;
76574;SDS011;65439;50.948;6.988;2023-04-24T13:27:08;11.00;;;5.17;;
76574;SDS011;65439;50.948;6.988;2023-04-24T13:29:33;11.45;;;5.32;;
76574;SDS011;65439;50.948;6.988;2023-04-24T13:31:59;6.40;;;5.00;;
76574;SDS011;65439;50.948;6.988;2023-04-24T13:34:24;11.15;;;5.85;;
76574;SDS011;65439;50.948;6.988;2023-04-24T13:36:51;5.53;;;3.78;;
76574;SDS011;65439;50.948;6.988;2023-04-24T13:41:42;8.27;;;4.70;;
76574;SDS011;65439;50.948;6.988;2023-04-24T13:44:08;10.48;;;4.25;;
76574;SDS011;65439;50.948;6.988;2023-04-24T13:46:33;8.20;;;4.40;;
76574;SDS011;65439;50.948;6.988;2023-04-24T13:48:59;8.73;;;4.80;;
76574;SDS011;65439;50.948;6.988;2023-04-24T13:51:27;8.50;;;4.30;;
76574;SDS011;65439;50.948;6.988;2023-04-24T13:53:53;6.85;;;4.30;;
76574;SDS011;65439;50.948;6.988;2023-04-24T13:56:19;7.43;;;4.38;;
76574;SDS011;65439;50.948;6.988;2023-04-24T13:58:45;9.13;;;3.80;;
76574;SDS011;65439;50.948;6.988;2023-04-24T14:01:10;8.20;;;5.23;;
76574;SDS011;65439;50.948;6.988;2023-04-24T14:03:37;7.40;;;4.05;;
76574;SDS011;65439;50.948;6.988;2023-04-24T14:06:02;6.53;;;4.32;;
76574;SDS011;65439;50.948;6.988;2023-04-24T14:08:28;5.72;;;3.75;;
76574;SDS011;65439;50.948;6.988;2023-04-24T14:10:53;11.40;;;3.63;;
76574;SDS011;65439;50.948;6.988;2023-04-24T14:13:18;7.43;;;3.53;;
76574;SDS011;65439;50.948;6.988;2023-04-24T14:15:44;7.07;;;3.97;;
76574;SDS011;65439;50.948;6.988;2023-04-24T14:18:09;9.00;;;3.35;;
76574;SDS011;65439;50.948;6.988;2023-04-24T14:20:35;5.90;;;3.93;;
76574;SDS011;65439;50.948;6.988;2023-04-24T14:23:00;5.80;;;4.03;;
76574;SDS011;65439;50.948;6.988;2023-04-24T14:25:25;8.35;;;4.18;;
76574;SDS011;65439;50.948;6.988;2023-04-24T14:27:51;10.02;;;4.07;;
76574;SDS011;65439;50.948;6.988;2023-04-24T14:30:16;5.85;;;3.88;;
76574;SDS011;65439;50.948;6.988;2023-04-24T14:32:42;8.68;;;4.60;;
76574;SDS011;65439;50.948;6.988;2023-04-24T14:35:07;7.78;;;3.22;;
76574;SDS011;65439;50.948;6.988;2023-04-24T14:37:33;7.30;;;3.65;;
76574;SDS011;65439;50.948;6.988;2023-04-24T14:39:58;6.43;;;3.92;;
76574;SDS011;65439;50.948;6.988;2023-04-24T14:42:23;6.33;;;3.93;;
76574;SDS011;65439;50.948;6.988;2023-04-24T14:44:49;14.25;;;4.53;;
76574;SDS011;65439;50.948;6.988;2023-04-24T14:47:15;6.35;;;4.32;;
76574;SDS011;65439;50.948;6.988;2023-04-24T14:49:42;6.45;;;4.15;;
76574;SDS011;65439;50.948;6.988;2023-04-24T14:52:08;19.85;;;5.10;;
76574;SDS011;65439;50.948;6.988;2023-04-24T14:54:34;10.98;;;5.00;;
76574;SDS011;65439;50.948;6.988;2023-04-24T14:56:59;7.43;;;4.43;;
76574;SDS011;65439;50.948;6.988;2023-04-24T14:59:26;7.10;;;4.45;;
76574;SDS011;65439;50.948;6.988;2023-04-24T15:01:52;6.63;;;4.45;;
76574;SDS011;65439;50.948;6.988;2023-04-24T15:04:21;7.20;;;4.18;;